Time,TemperatureF,DewpointF,PressureIn,WindDirection,WindDirectionDegrees,WindSpeedMPH,WindSpeedGustMPH,Humidity,HourlyPrecipIn,Conditions,Clouds,dailyrainin,SoftwareType,DateUTC
2013-09-12 00:01:00,67.7,50.5,30.04,NW,312,3.5,3.5,54,0.00,CLR,SKC,0.00,WeatherDisplay:10.37,2013-09-12 05:01:00,
2013-09-12 00:06:00,67.7,49.9,30.04,NNW,340,10.4,10.4,53,0.00,CLR,SKC,0.00,WeatherDisplay:10.37,2013-09-12 05:06:00,
2013-09-12 00:11:00,67.7,49.9,30.04,WNW,296,6.9,6.9,53,0.00,CLR,SKC,0.00,WeatherDisplay:10.37,2013-09-12 05:11:00,
2013-09-12 00:16:00,67.6,49.9,30.04,NW,325,9.2,9.2,53,0.00,CLR,SKC,0.00,WeatherDisplay:10.37,2013-09-12 05:16:00,
2013-09-12 00:21:00,67.4,49.7,30.04,NW,311,3.5,3.5,53,0.00,CLR,SKC,0.00,WeatherDisplay:10.37,2013-09-12 05:21:00,
2013-09-12 00:26:00,67.2,49.5,30.04,NNW,329,0.0,0.0,53,0.00,CLR,SKC,0.00,WeatherDisplay:10.37,2013-09-12 05:26:00,
2013-09-12 00:31:00,67.0,49.8,30.04,NW,319,5.8,5.8,54,0.00,CLR,SKC,0.00,WeatherDisplay:10.37,2013-09-12 05:31:00,
2013-09-12 00:36:00,66.9,49.7,30.04,WNW,299,3.5,3.5,54,0.00,CLR,SKC,0.00,WeatherDisplay:10.37,2013-09-12 05:36:00,
2013-09-12 00:41:00,66.6,49.4,30.04,WNW,288,5.8,5.8,54,0.00,CLR,SKC,0.00,WeatherDisplay:10.37,2013-09-12 05:41:00,
2013-09-12 00:46:00,66.4,49.7,30.04,NW,325,3.5,3.5,55,0.00,CLR,SKC,0.00,WeatherDisplay:10.37,2013-09-12 05:46:00,
2013-09-12 00:51:00,66.2,50.0,30.04,NW,318,0.0,0.0,56,0.00,CLR,SKC,0.00,WeatherDisplay:10.37,2013-09-12 05:51:00,
2013-09-12 00:56:00,66.0,49.8,30.04,NW,307,4.6,4.6,56,0.00,CLR,SKC,0.00,WeatherDisplay:10.37,2013-09-12 05:56:00,
2013-09-12 01:01:00,65.9,49.8,30.04,NW,314,3.5,3.5,56,0.00,CLR,SKC,0.00,WeatherDisplay:10.37,2013-09-12 06:01:00,
2013-09-12 01:06:00,65.7,50.0,30.05,NW,307,1.2,0.0,57,0.00,CLR,SKC,0.00,WeatherDisplay:10.37,2013-09-12 06:06:00,
2013-09-12 01:11:00,65.5,49.9,30.05,NW,315,3.5,3.5,57,0.00,CLR,SKC,0.00,WeatherDisplay:10.37,2013-09-12 06:11:00,
2013-09-12 01:16:00,65.3,50.1,30.05,NW,321,3.5,3.5,58,0.00,CLR,SKC,0.00,WeatherDisplay:10.37,2013-09-12 06:16:00,
2013-09-12 01:22:00,65.0,49.9,30.05,NW,313,3.5,3.5,58,0.00,CLR,SKC,0.00,WeatherDisplay:10.37,2013-09-12 06:22:00,
2013-09-12 01:26:00,64.8,50.1,30.05,NNW,334,2.3,3.6,59,0.00,CLR,SKC,0.00,WeatherDisplay:10.37,2013-09-12 06:26:00,
2013-09-12 01:32:00,64.7,50.0,30.05,WNW,302,4.6,4.6,59,0.00,CLR,SKC,0.00,WeatherDisplay:10.37,2013-09-12 06:32:00,
2013-09-12 01:37:00,64.5,50.3,30.06,NW,319,0.0,1.4,60,0.00,CLR,SKC,0.00,WeatherDisplay:10.37,2013-09-12 06:37:00,
2013-09-12 01:42:00,64.3,50.1,30.06,NW,319,3.5,0.0,60,0.00,CLR,SKC,0.00,WeatherDisplay:10.37,2013-09-12 06:42:00,
2013-09-12 01:47:00,64.2,50.0,30.06,NNW,331,4.6,4.6,60,0.00,CLR,SKC,0.00,WeatherDisplay:10.37,2013-09-12 06:47:00,
2013-09-12 01:52:00,64.0,50.3,30.06,NNW,333,4.6,4.6,61,0.00,CLR,SKC,0.00,WeatherDisplay:10.37,2013-09-12 06:52:00,
2013-09-12 01:57:00,64.0,50.3,30.06,NW,315,9.2,9.2,61,0.00,CLR,SKC,0.00,WeatherDisplay:10.37,2013-09-12 06:57:00,
2013-09-12 02:02:00,63.9,50.2,30.06,NNW,337,3.5,0.0,61,0.00,CLR,SKC,0.00,WeatherDisplay:10.37,2013-09-12 07:02:00,
2013-09-12 02:07:00,63.8,50.1,30.06,NNW,329,3.5,3.5,61,0.00,CLR,SKC,0.00,WeatherDisplay:10.37,2013-09-12 07:07:00,
2013-09-12 02:12:00,63.7,50.4,30.06,NW,315,5.8,5.8,62,0.00,CLR,SKC,0.00,WeatherDisplay:10.37,2013-09-12 07:12:00,
2013-09-12 02:17:00,63.6,50.3,30.06,NW,317,2.3,2.3,62,0.00,CLR,SKC,0.00,WeatherDisplay:10.37,2013-09-12 07:17:00,
2013-09-12 02:22:00,63.5,50.2,30.06,NW,312,0.0,0.0,62,0.00,CLR,SKC,0.00,WeatherDisplay:10.37,2013-09-12 07:22:00,
2013-09-12 02:27:00,63.2,50.4,30.07,NNW,331,3.5,3.5,63,0.00,CLR,SKC,0.00,WeatherDisplay:10.37,2013-09-12 07:27:00,
2013-09-12 02:32:00,63.0,50.2,30.07,NW,326,3.5,3.5,63,0.00,CLR,SKC,0.00,WeatherDisplay:10.37,2013-09-12 07:32:00,
2013-09-12 02:37:00,62.9,50.1,30.07,NW,315,6.9,6.9,63,0.00,CLR,SKC,0.00,WeatherDisplay:10.37,2013-09-12 07:37:00,
2013-09-12 02:42:00,62.8,50.0,30.07,NW,319,9.2,9.2,63,0.00,CLR,SKC,0.00,WeatherDisplay:10.37,2013-09-12 07:42:00,
2013-09-12 02:47:00,62.6,50.2,30.07,NW,324,5.8,5.8,64,0.00,CLR,SKC,0.00,WeatherDisplay:10.37,2013-09-12 07:47:00,
2013-09-12 02:52:00,62.3,50.0,30.08,NW,324,2.3,2.3,64,0.00,CLR,SKC,0.00,WeatherDisplay:10.37,2013-09-12 07:52:00,
2013-09-12 02:57:00,62.1,50.2,30.08,NW,326,2.3,2.3,65,0.00,CLR,SKC,0.00,WeatherDisplay:10.37,2013-09-12 07:57:00,
2013-09-12 03:02:00,61.9,50.4,30.08,North,360,4.6,4.6,66,0.00,CLR,SKC,0.00,WeatherDisplay:10.37,2013-09-12 08:02:00,
2013-09-12 03:07:00,61.7,50.2,30.08,NNW,341,4.6,4.6,66,0.00,CLR,SKC,0.00,WeatherDisplay:10.37,2013-09-12 08:07:00,
2013-09-12 03:12:00,61.5,50.4,30.08,NNW,329,0.0,0.0,67,0.00,CLR,SKC,0.00,WeatherDisplay:10.37,2013-09-12 08:12:00,
2013-09-12 03:17:00,61.3,50.2,30.08,NNW,337,3.5,3.5,67,0.00,CLR,SKC,0.00,WeatherDisplay:10.37,2013-09-12 08:17:00,
2013-09-12 03:22:00,61.2,50.6,30.08,NW,313,3.5,3.5,68,0.00,CLR,SKC,0.00,WeatherDisplay:10.37,2013-09-12 08:22:00,
2013-09-12 03:27:00,61.0,50.4,30.08,NW,308,0.0,0.0,68,0.00,CLR,SKC,0.00,WeatherDisplay:10.37,2013-09-12 08:27:00,
2013-09-12 03:32:00,60.7,50.5,30.09,NW,313,0.0,0.0,69,0.00,CLR,SKC,0.00,WeatherDisplay:10.37,2013-09-12 08:32:00,
2013-09-12 03:37:00,60.4,50.2,30.09,NNW,336,0.0,0.6,69,0.00,CLR,SKC,0.00,WeatherDisplay:10.37,2013-09-12 08:37:00,
2013-09-12 03:42:00,60.3,50.5,30.09,North,355,0.0,0.0,70,0.00,CLR,SKC,0.00,WeatherDisplay:10.37,2013-09-12 08:42:00,
2013-09-12 03:47:00,60.2,50.4,30.09,NNW,342,0.0,0.0,70,0.00,CLR,SKC,0.00,WeatherDisplay:10.37,2013-09-12 08:47:00,
2013-09-12 03:52:00,60.0,50.6,30.09,NNW,327,3.5,3.5,71,0.00,CLR,SKC,0.00,WeatherDisplay:10.37,2013-09-12 08:52:00,
2013-09-12 03:57:00,59.8,50.4,30.09,NNW,331,0.0,0.0,71,0.00,CLR,SKC,0.00,WeatherDisplay:10.37,2013-09-12 08:57:00,
2013-09-12 04:02:00,59.6,50.6,30.09,North,349,5.8,5.8,72,0.00,CLR,SKC,0.00,WeatherDisplay:10.37,2013-09-12 09:02:00,
2013-09-12 04:07:00,59.6,50.6,30.09,NW,319,4.0,4.0,72,0.00,CLR,SKC,0.00,WeatherDisplay:10.37,2013-09-12 09:07:00,
2013-09-12 04:12:00,59.5,50.5,30.09,NW,319,4.6,4.6,72,0.00,CLR,SKC,0.00,WeatherDisplay:10.37,2013-09-12 09:12:00,
2013-09-12 04:17:00,59.3,50.6,30.09,NNW,346,2.3,2.3,73,0.00,CLR,SKC,0.00,WeatherDisplay:10.37,2013-09-12 09:17:00,
2013-09-12 04:22:00,59.0,50.4,30.09,NNW,336,2.3,2.3,73,0.00,CLR,SKC,0.00,WeatherDisplay:10.37,2013-09-12 09:22:00,
2013-09-12 04:27:00,59.0,50.7,30.09,NNW,345,5.8,5.8,74,0.00,CLR,SKC,0.00,WeatherDisplay:10.37,2013-09-12 09:27:00,
2013-09-12 04:32:00,59.0,50.7,30.09,NNW,339,0.0,0.0,74,0.00,CLR,SKC,0.00,WeatherDisplay:10.37,2013-09-12 09:32:00,
2013-09-12 04:37:00,59.0,51.1,30.10,North,355,5.8,5.8,75,0.00,CLR,SKC,0.00,WeatherDisplay:10.37,2013-09-12 09:37:00,
2013-09-12 04:42:00,58.8,50.9,30.10,NNW,340,2.3,2.3,75,0.00,CLR,SKC,0.00,WeatherDisplay:10.37,2013-09-12 09:42:00,
2013-09-12 04:47:00,58.6,51.1,30.10,NNW,340,0.0,0.0,76,0.00,CLR,SKC,0.00,WeatherDisplay:10.37,2013-09-12 09:47:00,
2013-09-12 04:52:00,58.4,50.9,30.10,NNW,340,0.0,0.0,76,0.00,CLR,SKC,0.00,WeatherDisplay:10.37,2013-09-12 09:52:00,
2013-09-12 04:57:00,58.2,50.7,30.10,NNW,340,0.0,0.0,76,0.00,CLR,SKC,0.00,WeatherDisplay:10.37,2013-09-12 09:57:00,
2013-09-12 05:02:00,57.9,50.7,30.10,NNW,340,0.0,0.0,77,0.00,CLR,SKC,0.00,WeatherDisplay:10.37,2013-09-12 10:02:00,
2013-09-12 05:07:00,57.7,50.5,30.10,NNW,340,0.0,0.0,77,0.00,CLR,SKC,0.00,WeatherDisplay:10.37,2013-09-12 10:07:00,
2013-09-12 05:12:00,57.6,50.4,30.10,NNW,340,0.0,0.0,77,0.00,CLR,SKC,0.00,WeatherDisplay:10.37,2013-09-12 10:12:00,
2013-09-12 05:17:00,57.5,50.7,30.10,NNW,340,0.0,0.0,78,0.00,CLR,SKC,0.00,WeatherDisplay:10.37,2013-09-12 10:17:00,
2013-09-12 05:22:00,57.4,50.6,30.10,NNW,340,0.0,0.0,78,0.00,CLR,SKC,0.00,WeatherDisplay:10.37,2013-09-12 10:22:00,
2013-09-12 05:27:00,57.4,50.2,30.10,NNW,340,0.0,0.0,77,0.00,CLR,SKC,0.00,WeatherDisplay:10.37,2013-09-12 10:27:00,
2013-09-12 05:32:00,57.3,50.5,30.11,NNW,340,0.0,0.0,78,0.00,CLR,SKC,0.00,WeatherDisplay:10.37,2013-09-12 10:32:00,
2013-09-12 05:37:00,57.0,50.2,30.11,NNW,340,0.0,0.0,78,0.00,CLR,SKC,0.00,WeatherDisplay:10.37,2013-09-12 10:37:00,
2013-09-12 05:42:00,56.8,50.0,30.11,NNW,340,2.3,0.0,78,0.00,CLR,SKC,0.00,WeatherDisplay:10.37,2013-09-12 10:42:00,
2013-09-12 05:47:00,56.8,50.4,30.11,NNW,340,0.0,0.0,79,0.00,CLR,SKC,0.00,WeatherDisplay:10.37,2013-09-12 10:47:00,
2013-09-12 05:52:00,56.8,50.4,30.11,NNW,340,0.0,0.0,79,0.00,CLR,SKC,0.00,WeatherDisplay:10.37,2013-09-12 10:52:00,
2013-09-12 05:57:00,56.8,50.4,30.12,NNW,340,0.0,0.0,79,0.00,CLR,SKC,0.00,WeatherDisplay:10.37,2013-09-12 10:57:00,
2013-09-12 06:02:00,56.7,50.3,30.12,NNW,340,1.2,0.0,79,0.00,CLR,SKC,0.00,WeatherDisplay:10.37,2013-09-12 11:02:00,
2013-09-12 06:07:00,56.6,50.5,30.12,NNW,336,0.0,0.0,80,0.00,CLR,SKC,0.00,WeatherDisplay:10.37,2013-09-12 11:07:00,
2013-09-12 06:12:00,56.5,50.4,30.12,NNW,336,0.0,0.0,80,0.00,CLR,SKC,0.00,WeatherDisplay:10.37,2013-09-12 11:12:00,
2013-09-12 06:17:00,56.3,50.5,30.12,NNW,336,0.0,0.0,81,0.00,CLR,SKC,0.00,WeatherDisplay:10.37,2013-09-12 11:17:00,
2013-09-12 06:22:00,56.2,50.4,30.12,NNW,336,0.0,0.0,81,0.00,CLR,SKC,0.00,WeatherDisplay:10.37,2013-09-12 11:22:00,
2013-09-12 06:27:00,56.2,50.4,30.12,NNW,336,0.0,0.0,81,0.00,CLR,SKC,0.00,WeatherDisplay:10.37,2013-09-12 11:27:00,
2013-09-12 06:32:00,56.1,50.3,30.12,NNW,336,0.0,0.0,81,0.00,CLR,SKC,0.00,WeatherDisplay:10.37,2013-09-12 11:32:00,
2013-09-12 06:37:00,55.9,50.2,30.13,NNW,336,0.0,0.0,81,0.00,CLR,SKC,0.00,WeatherDisplay:10.37,2013-09-12 11:37:00,
2013-09-12 06:42:00,55.7,50.3,30.13,NNW,336,0.0,0.0,82,0.00,CLR,SKC,0.00,WeatherDisplay:10.37,2013-09-12 11:42:00,
2013-09-12 06:47:00,55.6,50.2,30.13,NNW,336,0.0,0.0,82,0.00,CLR,SKC,0.00,WeatherDisplay:10.37,2013-09-12 11:47:00,
2013-09-12 06:52:00,55.5,50.1,30.13,NNW,336,0.0,0.0,82,0.00,CLR,SKC,0.00,WeatherDisplay:10.37,2013-09-12 11:52:00,
2013-09-12 06:57:00,55.5,50.1,30.14,NNW,336,1.2,0.0,82,0.00,CLR,SKC,0.00,WeatherDisplay:10.37,2013-09-12 11:57:00,
2013-09-12 07:02:00,55.6,50.2,30.13,NNW,345,3.5,3.5,82,0.00,CLR,SKC,0.00,WeatherDisplay:10.37,2013-09-12 12:02:00,
2013-09-12 07:07:00,55.9,50.5,30.14,NNW,331,3.5,0.0,82,0.00,CLR,SKC,0.00,WeatherDisplay:10.37,2013-09-12 12:07:00,
2013-09-12 07:12:00,56.0,50.3,30.14,NNW,329,0.0,0.0,81,0.00,CLR,SKC,0.00,WeatherDisplay:10.37,2013-09-12 12:12:00,
2013-09-12 07:17:00,56.0,50.3,30.14,NNW,329,1.2,0.0,81,0.00,CLR,SKC,0.00,WeatherDisplay:10.37,2013-09-12 12:17:00,
2013-09-12 07:22:00,56.0,50.3,30.14,NNW,341,0.0,0.5,81,0.00,CLR,SKC,0.00,WeatherDisplay:10.37,2013-09-12 12:22:00,
2013-09-12 07:27:00,56.1,50.3,30.14,NNW,338,0.0,0.0,81,0.00,CLR,SKC,0.00,WeatherDisplay:10.37,2013-09-12 12:27:00,
2013-09-12 07:33:00,56.2,50.4,30.14,NNW,338,0.0,0.0,81,0.00,CLR,SKC,0.00,WeatherDisplay:10.37,2013-09-12 12:33:00,
2013-09-12 07:38:00,56.4,50.3,30.14,NNW,338,0.0,0.0,80,0.00,CLR,SKC,0.00,WeatherDisplay:10.37,2013-09-12 12:38:00,
2013-09-12 07:43:00,56.6,50.5,30.15,NNW,338,1.2,0.0,80,0.00,CLR,SKC,0.00,WeatherDisplay:10.37,2013-09-12 12:43:00,
2013-09-12 07:48:00,56.7,50.6,30.15,NW,325,0.0,0.0,80,0.00,CLR,SKC,0.00,WeatherDisplay:10.37,2013-09-12 12:48:00,
2013-09-12 07:53:00,56.9,50.5,30.15,NW,313,3.5,3.5,79,0.00,CLR,SKC,0.00,WeatherDisplay:10.37,2013-09-12 12:53:00,
2013-09-12 07:58:00,57.1,50.6,30.15,NW,313,0.0,0.0,79,0.00,CLR,SKC,0.00,WeatherDisplay:10.37,2013-09-12 12:58:00,
2013-09-12 08:03:00,57.3,50.8,30.15,NW,313,0.0,0.0,79,0.00,CLR,SKC,0.00,WeatherDisplay:10.37,2013-09-12 13:03:00,
2013-09-12 08:08:00,57.5,50.7,30.15,North,350,4.0,4.0,78,0.00,CLR,SKC,0.00,WeatherDisplay:10.37,2013-09-12 13:08:00,
2013-09-12 08:13:00,57.7,50.9,30.15,North,351,0.0,0.0,78,0.00,CLR,SKC,0.00,WeatherDisplay:10.37,2013-09-12 13:13:00,
2013-09-12 08:18:00,57.9,51.1,30.15,North,350,2.3,2.3,78,0.00,CLR,SKC,0.00,WeatherDisplay:10.37,2013-09-12 13:18:00,
2013-09-12 08:23:00,58.1,50.9,30.15,NNW,334,0.0,0.0,77,0.00,CLR,SKC,0.00,WeatherDisplay:10.37,2013-09-12 13:23:00,
2013-09-12 08:28:00,58.4,51.2,30.16,NNW,336,0.0,0.0,77,0.00,CLR,SKC,0.00,WeatherDisplay:10.37,2013-09-12 13:28:00,
2013-09-12 08:33:00,58.6,51.4,30.16,NW,326,0.0,0.0,77,0.00,CLR,SKC,0.00,WeatherDisplay:10.37,2013-09-12 13:33:00,
2013-09-12 08:38:00,59.0,51.8,30.16,NW,324,2.3,2.3,77,0.00,CLR,SKC,0.00,WeatherDisplay:10.37,2013-09-12 13:38:00,
2013-09-12 08:43:00,59.0,51.4,30.17,NNE,18,2.3,2.3,76,0.00,CLR,SKC,0.00,WeatherDisplay:10.37,2013-09-12 13:43:00,
2013-09-12 08:48:00,59.4,51.8,30.16,NW,315,3.5,3.5,76,0.00,CLR,SKC,0.00,WeatherDisplay:10.37,2013-09-12 13:48:00,
2013-09-12 08:53:00,59.9,51.6,30.16,NNE,14,3.5,3.5,74,0.00,CLR,SKC,0.00,WeatherDisplay:10.37,2013-09-12 13:53:00,
2013-09-12 08:58:00,60.2,51.9,30.17,NW,320,0.0,0.0,74,0.00,CLR,SKC,0.00,WeatherDisplay:10.37,2013-09-12 13:58:00,
2013-09-12 09:03:00,60.6,52.3,30.17,NW,321,3.5,3.5,74,0.00,CLR,SKC,0.00,WeatherDisplay:10.37,2013-09-12 14:03:00,
2013-09-12 09:08:00,60.9,52.2,30.17,NNE,14,5.8,5.8,73,0.00,CLR,SKC,0.00,WeatherDisplay:10.37,2013-09-12 14:08:00,
2013-09-12 09:13:00,61.3,52.2,30.17,NW,320,3.5,3.5,72,0.00,CLR,SKC,0.00,WeatherDisplay:10.37,2013-09-12 14:13:00,
2013-09-12 09:18:00,61.4,51.9,30.17,NW,323,6.9,6.9,71,0.00,CLR,SKC,0.00,WeatherDisplay:10.37,2013-09-12 14:18:00,
2013-09-12 09:23:00,61.6,51.7,30.17,NW,322,5.8,5.8,70,0.00,CLR,SKC,0.00,WeatherDisplay:10.37,2013-09-12 14:23:00,
2013-09-12 09:28:00,61.8,51.9,30.17,WNW,287,9.0,9.0,70,0.00,CLR,SKC,0.00,WeatherDisplay:10.37,2013-09-12 14:28:00,
2013-09-12 09:33:00,62.2,52.7,30.17,NNW,331,3.5,3.5,71,0.00,CLR,SKC,0.00,WeatherDisplay:10.37,2013-09-12 14:33:00,
2013-09-12 09:38:00,62.6,52.7,30.17,NNE,13,4.6,4.6,70,0.00,CLR,SKC,0.00,WeatherDisplay:10.37,2013-09-12 14:38:00,
2013-09-12 09:43:00,62.9,52.6,30.17,North,355,3.5,3.5,69,0.00,CLR,SKC,0.00,WeatherDisplay:10.37,2013-09-12 14:43:00,
2013-09-12 09:48:00,63.2,52.9,30.17,NNE,30,3.5,3.5,69,0.00,CLR,SKC,0.00,WeatherDisplay:10.37,2013-09-12 14:48:00,
2013-09-12 09:53:00,63.6,52.8,30.18,NW,304,2.3,0.0,68,0.00,CLR,SKC,0.00,WeatherDisplay:10.37,2013-09-12 14:53:00,
2013-09-12 09:58:00,64.0,52.8,30.18,NNW,328,1.2,1.2,67,0.00,CLR,SKC,0.00,WeatherDisplay:10.37,2013-09-12 14:58:00,
2013-09-12 10:03:00,64.0,52.8,30.18,NNW,331,5.8,5.8,67,0.00,CLR,SKC,0.00,WeatherDisplay:10.37,2013-09-12 15:03:00,
2013-09-12 10:08:00,64.3,53.1,30.17,NW,325,1.2,1.2,67,0.00,CLR,SKC,0.00,WeatherDisplay:10.37,2013-09-12 15:08:00,
2013-09-12 10:13:00,64.4,52.8,30.18,NW,312,5.8,5.8,66,0.00,CLR,SKC,0.00,WeatherDisplay:10.37,2013-09-12 15:13:00,
2013-09-12 10:18:00,64.3,53.1,30.18,NNW,343,10.4,10.4,67,0.00,CLR,SKC,0.00,WeatherDisplay:10.37,2013-09-12 15:18:00,
2013-09-12 10:23:00,64.5,53.3,30.18,NW,326,4.6,4.6,67,0.00,CLR,SKC,0.00,WeatherDisplay:10.37,2013-09-12 15:23:00,
2013-09-12 10:28:00,65.0,53.4,30.18,NW,315,9.2,9.2,66,0.00,CLR,SKC,0.00,WeatherDisplay:10.37,2013-09-12 15:28:00,
2013-09-12 10:33:00,65.2,53.6,30.18,NW,325,5.8,5.8,66,0.00,CLR,SKC,0.00,WeatherDisplay:10.37,2013-09-12 15:33:00,
2013-09-12 10:38:00,65.4,53.7,30.18,NNW,336,10.4,10.4,66,0.00,CLR,SKC,0.00,WeatherDisplay:10.37,2013-09-12 15:38:00,
2013-09-12 10:43:00,65.0,53.8,30.18,NW,317,10.4,10.4,67,0.00,CLR,SKC,0.00,WeatherDisplay:10.37,2013-09-12 15:43:00,
2013-09-12 10:48:00,65.1,53.9,30.18,NW,323,4.0,4.0,67,0.00,CLR,SKC,0.00,WeatherDisplay:10.37,2013-09-12 15:48:00,
2013-09-12 10:53:00,65.2,54.0,30.18,NNW,342,4.6,4.6,67,0.00,CLR,SKC,0.00,WeatherDisplay:10.37,2013-09-12 15:53:00,
2013-09-12 10:58:00,65.5,54.2,30.18,NNW,336,4.6,4.6,67,0.00,CLR,SKC,0.00,WeatherDisplay:10.37,2013-09-12 15:58:00,
2013-09-12 11:03:00,65.9,53.8,30.18,NNW,336,11.5,11.5,65,0.00,CLR,SKC,0.00,WeatherDisplay:10.37,2013-09-12 16:03:00,
2013-09-12 11:08:00,65.7,53.6,30.18,North,360,10.4,10.4,65,0.00,CLR,SKC,0.00,WeatherDisplay:10.37,2013-09-12 16:08:00,
2013-09-12 11:13:00,65.7,54.4,30.18,NW,323,6.9,6.9,67,0.00,CLR,SKC,0.00,WeatherDisplay:10.37,2013-09-12 16:13:00,
2013-09-12 11:18:00,66.2,54.1,30.18,West,264,11.5,11.5,65,0.00,CLR,SKC,0.00,WeatherDisplay:10.37,2013-09-12 16:18:00,
2013-09-12 11:23:00,66.1,54.0,30.18,NW,313,8.0,8.0,65,0.00,CLR,SKC,0.00,WeatherDisplay:10.37,2013-09-12 16:23:00,
2013-09-12 11:28:00,66.4,53.8,30.18,NW,311,11.5,11.5,64,0.00,CLR,SKC,0.00,WeatherDisplay:10.37,2013-09-12 16:28:00,
2013-09-12 11:33:00,66.1,53.6,30.18,NNW,342,10.4,10.4,64,0.00,CLR,SKC,0.00,WeatherDisplay:10.37,2013-09-12 16:33:00,
2013-09-12 11:38:00,66.0,53.0,30.18,WNW,298,11.5,11.5,63,0.00,CLR,SKC,0.00,WeatherDisplay:10.37,2013-09-12 16:38:00,
2013-09-12 11:43:00,67.0,53.1,30.18,WNW,287,11.5,11.5,61,0.00,CLR,SKC,0.00,WeatherDisplay:10.37,2013-09-12 16:43:00,
2013-09-12 11:48:00,67.5,53.6,30.18,NW,322,11.5,11.5,61,0.00,CLR,SKC,0.00,WeatherDisplay:10.37,2013-09-12 16:48:00,
2013-09-12 11:53:00,67.6,53.7,30.18,North,355,9.0,9.0,61,0.00,CLR,SKC,0.00,WeatherDisplay:10.37,2013-09-12 16:53:00,
2013-09-12 11:58:00,67.9,53.5,30.17,NW,309,10.4,10.4,60,0.00,CLR,SKC,0.00,WeatherDisplay:10.37,2013-09-12 16:58:00,
2013-09-12 12:03:00,68.2,53.3,30.17,North,350,4.6,4.6,59,0.00,CLR,SKC,0.00,WeatherDisplay:10.37,2013-09-12 17:03:00,
2013-09-12 12:08:00,68.2,52.9,30.17,NW,325,6.9,6.9,58,0.00,CLR,SKC,0.00,WeatherDisplay:10.37,2013-09-12 17:08:00,
2013-09-12 12:13:00,68.4,53.0,30.17,NNW,346,5.8,5.8,58,0.00,CLR,SKC,0.00,WeatherDisplay:10.37,2013-09-12 17:13:00,
2013-09-12 12:18:00,69.0,52.6,30.17,NW,315,10.4,10.4,56,0.00,CLR,SKC,0.00,WeatherDisplay:10.37,2013-09-12 17:18:00,
2013-09-12 12:23:00,69.2,52.3,30.17,NW,319,9.2,9.2,55,0.00,CLR,SKC,0.00,WeatherDisplay:10.37,2013-09-12 17:23:00,
2013-09-12 12:28:00,69.2,51.8,30.17,North,5,9.2,9.2,54,0.00,CLR,SKC,0.00,WeatherDisplay:10.37,2013-09-12 17:28:00,
2013-09-12 12:33:00,68.9,52.1,30.17,NW,326,11.5,11.5,55,0.00,CLR,SKC,0.00,WeatherDisplay:10.37,2013-09-12 17:33:00,
2013-09-12 12:38:00,68.6,51.3,30.17,NW,319,10.4,10.4,54,0.00,CLR,SKC,0.00,WeatherDisplay:10.37,2013-09-12 17:38:00,
2013-09-12 12:43:00,68.9,51.6,30.17,NNW,329,6.0,6.0,54,0.00,CLR,SKC,0.00,WeatherDisplay:10.37,2013-09-12 17:43:00,
2013-09-12 12:48:00,69.6,51.7,30.17,North,360,9.2,9.2,53,0.00,CLR,SKC,0.00,WeatherDisplay:10.37,2013-09-12 17:48:00,
2013-09-12 12:53:00,70.4,51.4,30.17,North,11,11.5,11.5,51,0.00,CLR,SKC,0.00,WeatherDisplay:10.37,2013-09-12 17:53:00,
2013-09-12 12:58:00,69.9,50.4,30.17,NW,321,13.8,13.8,50,0.00,CLR,SKC,0.00,WeatherDisplay:10.37,2013-09-12 17:58:00,
2013-09-12 13:03:00,69.4,51.0,30.17,North,355,11.5,11.5,52,0.00,CLR,SKC,0.00,WeatherDisplay:10.37,2013-09-12 18:03:00,
2013-09-12 13:08:00,69.2,50.8,30.16,NNW,346,6.9,6.9,52,0.00,CLR,SKC,0.00,WeatherDisplay:10.37,2013-09-12 18:08:00,
2013-09-12 13:13:00,69.4,50.5,30.17,North,355,11.5,11.5,51,0.00,CLR,SKC,0.00,WeatherDisplay:10.37,2013-09-12 18:13:00,
2013-09-12 13:18:00,69.1,51.2,30.16,North,351,9.2,9.2,53,0.00,CLR,SKC,0.00,WeatherDisplay:10.37,2013-09-12 18:18:00,
2013-09-12 13:23:00,69.9,50.4,30.16,WNW,286,9.2,9.2,50,0.00,CLR,SKC,0.00,WeatherDisplay:10.37,2013-09-12 18:23:00,
2013-09-12 13:28:00,70.7,49.5,30.16,NNW,338,10.4,10.4,47,0.00,CLR,SKC,0.00,WeatherDisplay:10.37,2013-09-12 18:28:00,
2013-09-12 13:34:00,70.4,49.8,30.16,NNW,329,20.7,20.7,48,0.00,CLR,SKC,0.00,WeatherDisplay:10.37,2013-09-12 18:34:00,
2013-09-12 13:39:00,70.4,50.3,30.16,NNW,342,10.4,10.4,49,0.00,CLR,SKC,0.00,WeatherDisplay:10.37,2013-09-12 18:39:00,
2013-09-12 13:44:00,70.3,50.2,30.16,NNW,332,9.2,9.2,49,0.00,CLR,SKC,0.00,WeatherDisplay:10.37,2013-09-12 18:44:00,
2013-09-12 13:49:00,70.3,48.5,30.16,West,279,12.7,12.7,46,0.00,CLR,SKC,0.00,WeatherDisplay:10.37,2013-09-12 18:49:00,
2013-09-12 13:54:00,70.4,49.2,30.16,NNW,333,11.5,11.5,47,0.00,CLR,SKC,0.00,WeatherDisplay:10.37,2013-09-12 18:54:00,
2013-09-12 13:59:00,69.6,49.0,30.16,NNW,329,11.5,11.5,48,0.00,CLR,SKC,0.00,WeatherDisplay:10.37,2013-09-12 18:59:00,
2013-09-12 14:04:00,70.2,49.0,30.16,NW,323,11.5,11.5,47,0.00,CLR,SKC,0.00,WeatherDisplay:10.37,2013-09-12 19:04:00,
2013-09-12 14:09:00,70.8,48.4,30.16,NNW,340,15.0,15.0,45,0.00,CLR,SKC,0.00,WeatherDisplay:10.37,2013-09-12 19:09:00,
2013-09-12 14:14:00,71.3,48.3,30.16,NW,324,13.8,13.8,44,0.00,CLR,SKC,0.00,WeatherDisplay:10.37,2013-09-12 19:14:00,
2013-09-12 14:19:00,71.8,48.7,30.16,NW,319,6.9,6.9,44,0.00,CLR,SKC,0.00,WeatherDisplay:10.37,2013-09-12 19:19:00,
2013-09-12 14:24:00,71.6,49.1,30.16,North,9,6.9,6.9,45,0.00,CLR,SKC,0.00,WeatherDisplay:10.37,2013-09-12 19:24:00,
2013-09-12 14:29:00,71.5,47.8,30.16,North,360,10.4,10.4,43,0.00,CLR,SKC,0.00,WeatherDisplay:10.37,2013-09-12 19:29:00,
2013-09-12 14:34:00,71.3,48.9,30.16,NW,304,6.9,6.9,45,0.00,CLR,SKC,0.00,WeatherDisplay:10.37,2013-09-12 19:34:00,
2013-09-12 14:39:00,70.8,48.4,30.16,NW,322,13.8,13.8,45,0.00,CLR,SKC,0.00,WeatherDisplay:10.37,2013-09-12 19:39:00,
2013-09-12 14:44:00,70.3,48.5,30.16,NNW,334,5.8,5.8,46,0.00,CLR,SKC,0.00,WeatherDisplay:10.37,2013-09-12 19:44:00,
2013-09-12 14:49:00,70.1,47.8,30.16,North,10,11.5,11.5,45,0.00,CLR,SKC,0.00,WeatherDisplay:10.37,2013-09-12 19:49:00,
2013-09-12 14:54:00,70.7,48.3,30.16,NNW,327,11.5,11.5,45,0.00,CLR,SKC,0.00,WeatherDisplay:10.37,2013-09-12 19:54:00,
2013-09-12 14:59:00,71.3,47.6,30.15,North,355,8.1,8.1,43,0.00,CLR,SKC,0.00,WeatherDisplay:10.37,2013-09-12 19:59:00,
2013-09-12 15:04:00,71.6,47.3,30.15,North,360,12.7,12.7,42,0.00,CLR,SKC,0.00,WeatherDisplay:10.37,2013-09-12 20:04:00,
2013-09-12 15:09:00,71.1,48.7,30.15,NW,325,4.6,4.6,45,0.00,CLR,SKC,0.00,WeatherDisplay:10.37,2013-09-12 20:09:00,
2013-09-12 15:14:00,70.7,48.3,30.15,NNW,344,1.2,1.2,45,0.00,CLR,SKC,0.00,WeatherDisplay:10.37,2013-09-12 20:14:00,
2013-09-12 15:19:00,70.4,48.0,30.15,NNW,346,3.5,3.5,45,0.00,CLR,SKC,0.00,WeatherDisplay:10.37,2013-09-12 20:19:00,
2013-09-12 15:24:00,69.9,48.2,30.15,North,5,4.6,4.6,46,0.00,CLR,SKC,0.00,WeatherDisplay:10.37,2013-09-12 20:24:00,
2013-09-12 15:29:00,69.4,47.1,30.15,North,360,5.8,5.8,45,0.00,CLR,SKC,0.00,WeatherDisplay:10.37,2013-09-12 20:29:00,
2013-09-12 15:34:00,69.0,45.6,30.15,NNW,329,10.4,10.4,43,0.00,CLR,SKC,0.00,WeatherDisplay:10.37,2013-09-12 20:34:00,
2013-09-12 15:39:00,69.6,46.7,30.15,NW,323,5.8,5.8,44,0.00,CLR,SKC,0.00,WeatherDisplay:10.37,2013-09-12 20:39:00,
2013-09-12 15:44:00,70.6,47.0,30.15,WNW,303,10.4,10.4,43,0.00,CLR,SKC,0.00,WeatherDisplay:10.37,2013-09-12 20:44:00,
2013-09-12 15:49:00,71.5,47.8,30.15,NW,323,15.0,15.0,43,0.00,CLR,SKC,0.00,WeatherDisplay:10.37,2013-09-12 20:49:00,
2013-09-12 15:54:00,71.6,47.9,30.15,North,11,10.0,10.0,43,0.00,CLR,SKC,0.00,WeatherDisplay:10.37,2013-09-12 20:54:00,
2013-09-12 15:59:00,70.7,45.8,30.15,NNW,336,6.9,6.9,41,0.00,CLR,SKC,0.00,WeatherDisplay:10.37,2013-09-12 20:59:00,
2013-09-12 16:04:00,70.2,45.4,30.15,North,5,10.4,10.4,41,0.00,CLR,SKC,0.00,WeatherDisplay:10.37,2013-09-12 21:04:00,
2013-09-12 16:09:00,70.9,46.0,30.14,NW,317,10.4,10.4,41,0.00,CLR,SKC,0.00,WeatherDisplay:10.37,2013-09-12 21:09:00,
2013-09-12 16:14:00,71.9,47.6,30.14,NW,315,15.0,15.0,42,0.00,CLR,SKC,0.00,WeatherDisplay:10.37,2013-09-12 21:14:00,
2013-09-12 16:19:00,71.3,47.6,30.15,NW,317,5.8,5.8,43,0.00,CLR,SKC,0.00,WeatherDisplay:10.37,2013-09-12 21:19:00,
2013-09-12 16:24:00,70.1,47.8,30.15,NW,322,5.8,5.8,45,0.00,CLR,SKC,0.00,WeatherDisplay:10.37,2013-09-12 21:24:00,
2013-09-12 16:29:00,70.7,48.3,30.14,NNW,338,4.6,4.6,45,0.00,CLR,SKC,0.00,WeatherDisplay:10.37,2013-09-12 21:29:00,
2013-09-12 16:34:00,71.2,48.2,30.14,NW,319,3.5,3.5,44,0.00,CLR,SKC,0.00,WeatherDisplay:10.37,2013-09-12 21:34:00,
2013-09-12 16:39:00,71.8,47.5,30.15,NW,314,3.5,3.5,42,0.00,CLR,SKC,0.00,WeatherDisplay:10.37,2013-09-12 21:39:00,
2013-09-12 16:44:00,71.7,47.4,30.14,NNW,334,3.5,3.5,42,0.00,CLR,SKC,0.00,WeatherDisplay:10.37,2013-09-12 21:44:00,
2013-09-12 16:49:00,71.0,46.1,30.14,North,349,11.5,11.5,41,0.00,CLR,SKC,0.00,WeatherDisplay:10.37,2013-09-12 21:49:00,
2013-09-12 16:54:00,70.2,46.6,30.14,WNW,300,3.5,3.5,43,0.00,CLR,SKC,0.00,WeatherDisplay:10.37,2013-09-12 21:54:00,
2013-09-12 16:59:00,69.9,45.8,30.14,NW,315,10.4,10.4,42,0.00,CLR,SKC,0.00,WeatherDisplay:10.37,2013-09-12 21:59:00,
2013-09-12 17:04:00,70.3,46.7,30.14,WNW,296,3.5,3.5,43,0.00,CLR,SKC,0.00,WeatherDisplay:10.37,2013-09-12 22:04:00,
2013-09-12 17:09:00,70.5,46.3,30.14,NNW,329,11.5,11.5,42,0.00,CLR,SKC,0.00,WeatherDisplay:10.37,2013-09-12 22:09:00,
2013-09-12 17:14:00,70.8,47.2,30.14,NW,323,5.8,5.8,43,0.00,CLR,SKC,0.00,WeatherDisplay:10.37,2013-09-12 22:14:00,
2013-09-12 17:19:00,71.2,46.3,30.14,NNW,342,6.9,6.9,41,0.00,CLR,SKC,0.00,WeatherDisplay:10.37,2013-09-12 22:19:00,
2013-09-12 17:24:00,71.2,46.9,30.14,NW,322,10.4,10.4,42,0.00,CLR,SKC,0.00,WeatherDisplay:10.37,2013-09-12 22:24:00,
2013-09-12 17:29:00,70.8,46.6,30.14,NNE,15,9.2,9.2,42,0.00,CLR,SKC,0.00,WeatherDisplay:10.37,2013-09-12 22:29:00,
2013-09-12 17:34:00,70.0,45.8,30.15,North,5,4.6,4.6,42,0.00,CLR,SKC,0.00,WeatherDisplay:10.37,2013-09-12 22:34:00,
2013-09-12 17:39:00,69.2,46.4,30.14,NNW,331,1.2,1.2,44,0.00,CLR,SKC,0.00,WeatherDisplay:10.37,2013-09-12 22:39:00,
2013-09-12 17:44:00,69.2,46.4,30.14,NNW,346,4.6,4.6,44,0.00,CLR,SKC,0.00,WeatherDisplay:10.37,2013-09-12 22:44:00,
2013-09-12 17:49:00,69.4,46.5,30.14,NNW,332,5.8,5.8,44,0.00,CLR,SKC,0.00,WeatherDisplay:10.37,2013-09-12 22:49:00,
2013-09-12 17:54:00,69.7,46.8,30.14,NW,315,2.3,2.3,44,0.00,CLR,SKC,0.00,WeatherDisplay:10.37,2013-09-12 22:54:00,
2013-09-12 17:59:00,70.1,46.6,30.14,NNW,331,5.8,5.8,43,0.00,CLR,SKC,0.00,WeatherDisplay:10.37,2013-09-12 22:59:00,
2013-09-12 18:04:00,70.2,46.6,30.15,North,355,6.9,6.9,43,0.00,CLR,SKC,0.00,WeatherDisplay:10.37,2013-09-12 23:04:00,
2013-09-12 18:09:00,70.0,46.5,30.15,NNW,348,5.8,5.8,43,0.00,CLR,SKC,0.00,WeatherDisplay:10.37,2013-09-12 23:09:00,
2013-09-12 18:14:00,69.6,46.1,30.15,North,355,3.5,3.5,43,0.00,CLR,SKC,0.00,WeatherDisplay:10.37,2013-09-12 23:14:00,
2013-09-12 18:19:00,68.8,46.0,30.15,North,5,2.3,2.3,44,0.00,CLR,SKC,0.00,WeatherDisplay:10.37,2013-09-12 23:19:00,
2013-09-12 18:24:00,68.2,46.6,30.15,NNW,348,2.3,2.3,46,0.00,CLR,SKC,0.00,WeatherDisplay:10.37,2013-09-12 23:24:00,
2013-09-12 18:29:00,68.2,46.6,30.15,NW,317,4.6,4.6,46,0.00,CLR,SKC,0.00,WeatherDisplay:10.37,2013-09-12 23:29:00,
2013-09-12 18:34:00,68.3,46.1,30.15,WNW,300,4.6,4.6,45,0.00,CLR,SKC,0.00,WeatherDisplay:10.37,2013-09-12 23:34:00,
2013-09-12 18:39:00,68.4,46.2,30.15,NW,313,6.9,6.9,45,0.00,CLR,SKC,0.00,WeatherDisplay:10.37,2013-09-12 23:39:00,
2013-09-12 18:44:00,68.4,46.2,30.15,North,360,3.5,3.5,45,0.00,CLR,SKC,0.00,WeatherDisplay:10.37,2013-09-12 23:44:00,
2013-09-12 18:49:00,68.4,46.2,30.15,North,355,3.5,3.5,45,0.00,CLR,SKC,0.00,WeatherDisplay:10.37,2013-09-12 23:49:00,
2013-09-12 18:54:00,68.1,46.5,30.15,North,360,3.5,3.5,46,0.00,CLR,SKC,0.00,WeatherDisplay:10.37,2013-09-12 23:54:00,
2013-09-12 18:59:00,67.8,46.3,30.15,NNW,344,3.5,3.5,46,0.00,CLR,SKC,0.00,WeatherDisplay:10.37,2013-09-12 23:59:00,
2013-09-12 19:04:00,67.5,46.0,30.16,NNW,327,4.6,4.6,46,0.00,CLR,SKC,0.00,WeatherDisplay:10.37,2013-09-13 00:04:00,
2013-09-12 19:09:00,67.1,46.2,30.16,North,11,3.5,3.5,47,0.00,CLR,SKC,0.00,WeatherDisplay:10.37,2013-09-13 00:09:00,
2013-09-12 19:14:00,66.8,45.9,30.15,North,360,3.5,3.5,47,0.00,CLR,SKC,0.00,WeatherDisplay:10.37,2013-09-13 00:14:00,
2013-09-12 19:19:00,66.4,46.1,30.16,North,355,1.2,1.2,48,0.00,CLR,SKC,0.00,WeatherDisplay:10.37,2013-09-13 00:19:00,
2013-09-12 19:24:00,66.0,46.3,30.16,North,5,1.2,1.2,49,0.00,CLR,SKC,0.00,WeatherDisplay:10.37,2013-09-13 00:24:00,
2013-09-12 19:29:00,65.5,45.8,30.16,North,360,4.6,4.6,49,0.00,CLR,SKC,0.00,WeatherDisplay:10.37,2013-09-13 00:29:00,
2013-09-12 19:34:00,65.4,45.7,30.16,NNW,345,4.6,4.6,49,0.00,CLR,SKC,0.00,WeatherDisplay:10.37,2013-09-13 00:34:00,
2013-09-12 19:39:00,65.4,45.7,30.16,North,350,3.5,3.5,49,0.00,CLR,SKC,0.00,WeatherDisplay:10.37,2013-09-13 00:39:00,
2013-09-12 19:44:00,65.2,45.5,30.16,North,355,2.3,2.4,49,0.00,CLR,SKC,0.00,WeatherDisplay:10.37,2013-09-13 00:44:00,
2013-09-12 19:50:00,64.9,45.8,30.17,North,355,2.3,2.3,50,0.00,CLR,SKC,0.00,WeatherDisplay:10.37,2013-09-13 00:50:00,
2013-09-12 19:55:00,64.7,45.6,30.17,North,350,2.3,2.3,50,0.00,CLR,SKC,0.00,WeatherDisplay:10.37,2013-09-13 00:55:00,
2013-09-12 20:00:00,64.4,45.3,30.17,North,350,6.9,6.9,50,0.00,CLR,SKC,0.00,WeatherDisplay:10.37,2013-09-13 01:00:00,
2013-09-12 20:05:00,64.3,45.3,30.17,NNW,344,1.0,0.0,50,0.00,CLR,SKC,0.00,WeatherDisplay:10.37,2013-09-13 01:05:00,
2013-09-12 20:10:00,64.0,45.5,30.17,North,355,2.3,2.3,51,0.00,CLR,SKC,0.00,WeatherDisplay:10.37,2013-09-13 01:10:00,
2013-09-12 20:15:00,63.7,45.2,30.18,North,355,1.2,1.2,51,0.00,CLR,SKC,0.00,WeatherDisplay:10.37,2013-09-13 01:15:00,
2013-09-12 20:20:00,63.4,44.9,30.18,North,355,0.0,0.0,51,0.00,CLR,SKC,0.00,WeatherDisplay:10.37,2013-09-13 01:20:00,
2013-09-12 20:25:00,63.2,45.3,30.18,North,355,0.0,0.0,52,0.00,CLR,SKC,0.00,WeatherDisplay:10.37,2013-09-13 01:25:00,
2013-09-12 20:30:00,62.9,45.5,30.18,North,355,0.0,0.0,53,0.00,CLR,SKC,0.00,WeatherDisplay:10.37,2013-09-13 01:30:00,
2013-09-12 20:35:00,62.6,45.7,30.18,North,355,0.0,0.0,54,0.00,CLR,SKC,0.00,WeatherDisplay:10.37,2013-09-13 01:35:00,
2013-09-12 20:40:00,62.3,45.9,30.19,North,355,0.0,0.0,55,0.00,CLR,SKC,0.00,WeatherDisplay:10.37,2013-09-13 01:40:00,
2013-09-12 20:45:00,62.0,45.6,30.19,North,355,0.0,0.0,55,0.00,CLR,SKC,0.00,WeatherDisplay:10.37,2013-09-13 01:45:00,
2013-09-12 20:50:00,61.6,45.7,30.19,North,355,0.0,0.0,56,0.00,CLR,SKC,0.00,WeatherDisplay:10.37,2013-09-13 01:50:00,
2013-09-12 20:55:00,61.4,46.0,30.19,North,355,0.0,0.0,57,0.00,CLR,SKC,0.00,WeatherDisplay:10.37,2013-09-13 01:55:00,
2013-09-12 21:00:00,61.2,46.3,30.19,North,355,0.0,0.0,58,0.00,CLR,SKC,0.00,WeatherDisplay:10.37,2013-09-13 02:00:00,
2013-09-12 21:05:00,61.1,46.2,30.19,North,355,0.0,0.0,58,0.00,CLR,SKC,0.00,WeatherDisplay:10.37,2013-09-13 02:05:00,
2013-09-12 21:10:00,60.9,46.0,30.19,North,355,0.0,0.0,58,0.00,CLR,SKC,0.00,WeatherDisplay:10.37,2013-09-13 02:10:00,
2013-09-12 21:15:00,60.7,45.8,30.19,North,355,0.0,0.0,58,0.00,CLR,SKC,0.00,WeatherDisplay:10.37,2013-09-13 02:15:00,
2013-09-12 21:20:00,60.6,45.7,30.20,North,355,0.0,0.0,58,0.00,CLR,SKC,0.00,WeatherDisplay:10.37,2013-09-13 02:20:00,
2013-09-12 21:25:00,60.4,46.0,30.20,North,355,0.0,0.0,59,0.00,CLR,SKC,0.00,WeatherDisplay:10.37,2013-09-13 02:25:00,
2013-09-12 21:30:00,60.2,46.3,30.20,North,355,0.0,0.0,60,0.00,CLR,SKC,0.00,WeatherDisplay:10.37,2013-09-13 02:30:00,
2013-09-12 21:35:00,60.1,46.2,30.20,North,355,0.0,0.0,60,0.00,CLR,SKC,0.00,WeatherDisplay:10.37,2013-09-13 02:35:00,
2013-09-12 21:40:00,59.9,46.0,30.20,North,355,0.0,0.0,60,0.00,CLR,SKC,0.00,WeatherDisplay:10.37,2013-09-13 02:40:00,
2013-09-12 21:45:00,59.8,46.3,30.20,North,355,0.0,0.0,61,0.00,CLR,SKC,0.00,WeatherDisplay:10.37,2013-09-13 02:45:00,
2013-09-12 21:50:00,59.5,46.0,30.20,North,355,0.0,0.0,61,0.00,CLR,SKC,0.00,WeatherDisplay:10.37,2013-09-13 02:50:00,
2013-09-12 21:55:00,59.4,45.5,30.20,North,355,0.0,0.0,60,0.00,CLR,SKC,0.00,WeatherDisplay:10.37,2013-09-13 02:55:00,
2013-09-12 22:00:00,59.3,45.4,30.20,North,355,0.0,0.0,60,0.00,CLR,SKC,0.00,WeatherDisplay:10.37,2013-09-13 03:00:00,
2013-09-12 22:05:00,59.2,45.8,30.20,North,355,0.0,0.0,61,0.00,CLR,SKC,0.00,WeatherDisplay:10.37,2013-09-13 03:05:00,
2013-09-12 22:10:00,59.0,45.6,30.20,North,355,0.0,0.0,61,0.00,CLR,SKC,0.00,WeatherDisplay:10.37,2013-09-13 03:10:00,
2013-09-12 22:15:00,58.8,45.4,30.20,North,355,0.0,0.0,61,0.00,CLR,SKC,0.00,WeatherDisplay:10.37,2013-09-13 03:15:00,
2013-09-12 22:20:00,58.5,45.5,30.20,North,355,0.0,0.0,62,0.00,CLR,SKC,0.00,WeatherDisplay:10.37,2013-09-13 03:20:00,
2013-09-12 22:25:00,58.3,45.8,30.20,North,355,0.0,0.0,63,0.00,CLR,SKC,0.00,WeatherDisplay:10.37,2013-09-13 03:25:00,
2013-09-12 22:30:00,58.3,45.8,30.20,North,355,0.0,0.0,63,0.00,CLR,SKC,0.00,WeatherDisplay:10.37,2013-09-13 03:30:00,
2013-09-12 22:35:00,58.4,45.4,30.20,North,355,0.0,0.0,62,0.00,CLR,SKC,0.00,WeatherDisplay:10.37,2013-09-13 03:35:00,
2013-09-12 22:40:00,58.5,45.5,30.21,North,355,0.0,0.0,62,0.00,CLR,SKC,0.00,WeatherDisplay:10.37,2013-09-13 03:40:00,
2013-09-12 22:45:00,58.4,45.4,30.21,North,355,0.0,0.0,62,0.00,CLR,SKC,0.00,WeatherDisplay:10.37,2013-09-13 03:45:00,
2013-09-12 22:50:00,58.1,45.1,30.21,North,355,0.0,0.0,62,0.00,CLR,SKC,0.00,WeatherDisplay:10.37,2013-09-13 03:50:00,
2013-09-12 22:55:00,57.8,45.3,30.21,North,355,0.0,0.0,63,0.00,CLR,SKC,0.00,WeatherDisplay:10.37,2013-09-13 03:55:00,
2013-09-12 23:00:00,57.6,45.5,30.21,North,355,0.0,0.0,64,0.00,CLR,SKC,0.00,WeatherDisplay:10.37,2013-09-13 04:00:00,
2013-09-12 23:01:00,57.6,45.5,30.21,North,355,0.0,0.0,64,0.00,CLR,SKC,0.00,WeatherDisplay:10.37,2013-09-13 04:01:00,
2013-09-12 23:06:00,57.5,45.8,30.21,North,355,0.0,0.0,65,0.00,CLR,SKC,0.00,WeatherDisplay:10.37,2013-09-13 04:06:00,
2013-09-12 23:11:00,57.3,46.0,30.21,North,355,0.0,0.0,66,0.00,CLR,SKC,0.00,WeatherDisplay:10.37,2013-09-13 04:11:00,
2013-09-12 23:16:00,57.3,46.4,30.21,North,355,0.0,0.0,67,0.00,CLR,SKC,0.00,WeatherDisplay:10.37,2013-09-13 04:16:00,
2013-09-12 23:21:00,57.2,46.3,30.21,North,355,0.0,0.0,67,0.00,CLR,SKC,0.00,WeatherDisplay:10.37,2013-09-13 04:21:00,
2013-09-12 23:26:00,57.1,46.6,30.21,North,355,0.0,0.0,68,0.00,CLR,SKC,0.00,WeatherDisplay:10.37,2013-09-13 04:26:00,
2013-09-12 23:31:00,56.8,46.3,30.21,North,355,0.0,0.0,68,0.00,CLR,SKC,0.00,WeatherDisplay:10.37,2013-09-13 04:31:00,
2013-09-12 23:36:00,56.6,46.2,30.21,North,355,0.0,0.0,68,0.00,CLR,SKC,0.00,WeatherDisplay:10.37,2013-09-13 04:36:00,
2013-09-12 23:41:00,56.5,46.1,30.22,North,355,0.0,0.0,68,0.00,CLR,SKC,0.00,WeatherDisplay:10.37,2013-09-13 04:41:00,
2013-09-12 23:46:00,56.6,46.5,30.22,North,355,0.0,0.0,69,0.00,CLR,SKC,0.00,WeatherDisplay:10.37,2013-09-13 04:46:00,
2013-09-12 23:51:00,56.5,46.1,30.22,North,355,0.0,0.0,68,0.00,CLR,SKC,0.00,WeatherDisplay:10.37,2013-09-13 04:51:00,
2013-09-12 23:56:00,56.4,46.0,30.22,North,355,0.0,0.0,68,0.00,CLR,SKC,0.00,WeatherDisplay:10.37,2013-09-13 04:56:00,